Time;durP1;ratioP1;P1;durP2;ratioP2;P2;SDS_P1;SDS_P2;PMS_P1;PMS_P2;Temp;Humidity;BMP_temperature;BMP_pressure;BME280_temperature;BME280_humidity;BME280_pressure;Samples;Min_cycle;Max_cycle;Signal;HPM_P1;HPM_P2
2023/06/18 00:00:00;;;;;;;6.87;4.40;;;;;;;-141.97;87.15;47884.28;5013677;28;20170;-81
2023/06/18 00:02:25;;;;;;;5.73;4.00;;;;;;;-141.97;86.83;47749.72;5015054;28;20646;-81
2023/06/18 00:04:51;;;;;;;7.30;4.10;;;;;;;-141.97;86.67;47768.94;5014577;28;20226;-81
2023/06/18 00:07:16;;;;;;;4.53;3.67;;;;;;;-141.97;86.69;47776.63;5014972;28;20175;-80
2023/06/18 00:09:41;;;;;;;5.83;3.73;;;;;;;-141.97;86.05;47715.13;5014146;28;20226;-81
2023/06/18 00:12:08;;;;;;;5.63;4.40;;;;;;;-141.97;85.56;47726.66;5013793;28;20173;-81
2023/06/18 00:14:34;;;;;;;6.33;4.40;;;;;;;-141.97;85.54;47938.09;5014971;28;20679;-80
2023/06/18 00:17:00;;;;;;;6.07;4.53;;;;;;;-141.97;85.59;47799.72;5014661;28;20174;-80
2023/06/18 00:19:25;;;;;;;6.30;4.40;;;;;;;-141.97;84.76;47786.25;5013634;28;20225;-81
2023/06/18 00:21:51;;;;;;;6.20;4.80;;;;;;;-141.97;84.21;47776.63;5014751;28;20266;-81
2023/06/18 00:24:16;;;;;;;6.93;4.50;;;;;;;-141.97;83.55;47755.50;5014268;28;20210;-81
2023/06/18 00:26:42;;;;;;;6.87;4.90;;;;;;;-141.97;83.61;47786.25;5014457;28;20170;-81
2023/06/18 00:29:07;;;;;;;6.53;3.93;;;;;;;-141.97;83.25;47753.56;5013964;28;20246;-82
2023/06/18 00:31:33;;;;;;;6.43;4.87;;;;;;;-141.97;83.33;47730.50;5013711;28;20505;-81
2023/06/18 00:34:06;;;;;;;5.40;4.63;;;;;;;-141.97;82.96;47730.50;5013929;28;20681;-81
2023/06/18 00:36:33;;;;;;;7.37;5.23;;;;;;;-141.97;83.31;47670.91;5013720;28;20155;-80
2023/06/18 00:38:59;;;;;;;6.07;4.10;;;;;;;-141.97;82.73;47705.53;5011989;28;20559;-81
2023/06/18 00:41:27;;;;;;;6.80;4.77;;;;;;;-141.97;82.82;47922.72;5013663;28;20163;-81
2023/06/18 00:43:53;;;;;;;6.20;4.90;;;;;;;-141.97;83.08;47922.72;5013996;28;20185;-82
2023/06/18 00:46:20;;;;;;;6.60;5.60;;;;;;;-141.97;82.65;47734.34;5014274;28;20170;-80
2023/06/18 00:48:45;;;;;;;5.60;4.60;;;;;;;-141.97;83.03;47790.09;5012483;28;20167;-80
2023/06/18 00:51:12;;;;;;;6.20;4.97;;;;;;;-141.97;82.15;47763.19;5012405;28;20185;-81
2023/06/18 00:53:38;;;;;;;8.13;4.97;;;;;;;-141.97;82.39;47786.25;5013717;28;20200;-81
2023/06/18 00:56:04;;;;;;;6.93;4.80;;;;;;;-141.97;82.14;47630.56;5013748;28;20535;-81
2023/06/18 00:58:31;;;;;;;6.00;4.63;;;;;;;-141.97;81.95;47957.34;5014132;28;20163;-80
2023/06/18 01:00:57;;;;;;;6.33;5.03;;;;;;;-141.97;81.70;47765.09;5013625;28;20599;-80
2023/06/18 01:03:25;;;;;;;5.50;4.33;;;;;;;-141.97;81.46;47799.72;5012528;28;20167;-81
2023/06/18 01:05:57;;;;;;;5.67;4.67;;;;;;;-141.97;81.27;47730.50;5013457;28;20203;-80
2023/06/18 01:08:24;;;;;;;6.90;4.80;;;;;;;-141.97;81.10;47770.88;5013137;28;20236;-77
2023/06/18 01:11:04;;;;;;;6.30;4.80;;;;;;;-141.97;80.79;47680.53;5012523;28;20213;-81
2023/06/18 01:13:39;;;;;;;7.73;4.37;;;;;;;-141.97;80.64;47763.19;5012769;28;20249;-80
2023/06/18 01:16:07;;;;;;;8.00;4.93;;;;;;;-141.97;80.62;47724.75;5013111;28;20186;-79
2023/06/18 01:18:36;;;;;;;5.53;4.30;;;;;;;-141.97;80.24;47759.34;5012728;28;20249;-80
2023/06/18 01:21:09;;;;;;;5.40;4.53;;;;;;;-141.97;80.36;47730.50;5012215;28;20245;-81
2023/06/18 01:24:11;;;;;;;6.37;4.63;;;;;;;-141.97;80.03;47745.88;5011590;28;20159;-81
2023/06/18 01:26:38;;;;;;;7.63;4.70;;;;;;;-141.97;79.99;47726.66;5012755;28;20200;-81
2023/06/18 01:29:09;;;;;;;5.47;4.57;;;;;;;-141.97;79.53;47768.94;5013059;28;20218;-81
2023/06/18 01:31:36;;;;;;;5.60;4.60;;;;;;;-141.97;79.14;47730.50;5013458;28;20627;-80
2023/06/18 01:34:04;;;;;;;5.80;4.60;;;;;;;-141.97;79.26;47765.09;5013584;28;20226;-80
2023/06/18 01:36:30;;;;;;;6.87;4.90;;;;;;;-141.97;78.85;47784.34;5013103;28;20186;-82
2023/06/18 01:39:03;;;;;;;5.77;4.73;;;;;;;-141.97;78.98;47803.56;5012284;28;20297;-79
2023/06/18 01:41:31;;;;;;;7.33;5.03;;;;;;;-141.97;78.84;47749.72;5012354;28;20242;-80
2023/06/18 01:44:01;;;;;;;5.87;4.43;;;;;;;-141.97;78.37;47669.00;5011976;28;20542;-81
2023/06/18 01:46:29;;;;;;;7.03;4.73;;;;;;;-141.97;78.02;47734.34;5012458;28;20167;-81
2023/06/18 01:48:57;;;;;;;7.57;5.17;;;;;;;-141.97;78.26;47718.97;5012824;28;20674;-81
2023/06/18 01:51:25;;;;;;;9.03;4.97;;;;;;;-141.97;78.30;47718.97;5012965;28;20173;-82
2023/06/18 01:53:53;;;;;;;5.80;4.77;;;;;;;-141.97;77.82;47724.75;5028187;28;20170;-81
2023/06/18 01:56:21;;;;;;;6.60;5.10;;;;;;;-141.97;77.91;47936.19;5013292;28;20159;-81
2023/06/18 01:58:46;;;;;;;6.27;5.00;;;;;;;-141.97;77.72;47622.88;5013028;28;20178;-82
2023/06/18 02:01:12;;;;;;;6.93;5.20;;;;;;;-141.97;77.80;47717.06;5012174;28;20178;-81
2023/06/18 02:03:39;;;;;;;6.57;5.07;;;;;;;-141.97;77.16;47742.03;5013429;28;20213;-81
2023/06/18 02:06:05;;;;;;;6.23;5.10;;;;;;;-141.97;77.26;47757.41;5012421;28;20175;-81
2023/06/18 02:08:31;;;;;;;8.30;5.60;;;;;;;-141.97;77.50;47697.84;5011829;28;20297;-80
2023/06/18 02:10:57;;;;;;;6.90;4.60;;;;;;;-141.97;77.19;47936.19;5012292;28;20277;-79
2023/06/18 02:13:22;;;;;;;6.23;4.63;;;;;;;-141.97;77.01;47753.56;5013088;28;20181;-80
2023/06/18 02:15:47;;;;;;;7.30;5.80;;;;;;;-141.97;76.87;47770.88;5011591;28;20158;-80
2023/06/18 02:18:13;;;;;;;6.40;5.10;;;;;;;-141.97;76.72;47761.25;5012526;28;20659;-80
2023/06/18 02:20:39;;;;;;;6.50;5.20;;;;;;;-141.97;76.44;47672.84;5012786;28;20173;-81
2023/06/18 02:23:05;;;;;;;8.13;5.40;;;;;;;-141.97;76.87;47759.34;5011689;28;20177;-80
2023/06/18 02:25:32;;;;;;;7.33;5.20;;;;;;;-141.97;76.51;47861.22;5012604;28;20191;-81
2023/06/18 02:28:02;;;;;;;8.20;5.80;;;;;;;-141.97;75.92;47724.75;5013479;28;20536;-81
2023/06/18 02:30:29;;;;;;;7.23;5.93;;;;;;;-141.97;75.90;47761.25;5012923;28;20231;-81
2023/06/18 02:32:58;;;;;;;7.83;5.50;;;;;;;-141.97;75.82;47753.56;5012808;28;20221;-81
2023/06/18 02:35:25;;;;;;;7.50;5.40;;;;;;;-141.97;75.99;47763.19;5013760;28;20169;-81
2023/06/18 02:37:50;;;;;;;7.90;5.50;;;;;;;-141.97;75.85;47738.19;5017853;28;20167;-80
2023/06/18 02:40:16;;;;;;;7.00;5.77;;;;;;;-141.97;75.93;47709.38;5016693;28;20638;-80
2023/06/18 02:42:47;;;;;;;6.93;5.70;;;;;;;-141.97;75.59;47661.31;5015196;28;20162;-79
2023/06/18 02:45:28;;;;;;;9.20;5.80;;;;;;;-141.97;75.97;47795.88;5016085;28;20226;-81
2023/06/18 02:47:53;;;;;;;8.57;5.87;;;;;;;-141.97;76.07;47703.59;4996447;28;20163;-82
2023/06/18 02:50:20;;;;;;;7.63;5.73;;;;;;;-141.97;75.99;47742.03;4994709;28;20167;-82
2023/06/18 02:52:46;;;;;;;8.43;6.57;;;;;;;-141.97;76.16;47899.66;4994732;28;20628;-82
2023/06/18 02:55:12;;;;;;;8.17;6.23;;;;;;;-141.97;75.49;47697.84;4996592;28;20155;-82
2023/06/18 02:57:39;;;;;;;8.63;6.60;;;;;;;-141.97;75.88;47859.28;5004622;28;20178;-82
2023/06/18 03:00:12;;;;;;;8.23;6.70;;;;;;;-141.97;76.13;47594.03;5017381;28;20167;-82
2023/06/18 03:02:41;;;;;;;10.00;7.13;;;;;;;-141.97;76.02;47607.50;5018219;28;20163;-82
2023/06/18 03:05:07;;;;;;;9.37;7.10;;;;;;;-141.97;75.65;47832.38;5016484;28;20285;-82
2023/06/18 03:07:33;;;;;;;9.93;7.30;;;;;;;-141.97;76.05;47636.31;5015889;28;20640;-83
2023/06/18 03:10:04;;;;;;;10.43;6.97;;;;;;;-141.97;75.82;47528.69;5015608;28;20227;-81
2023/06/18 03:12:30;;;;;;;9.77;7.33;;;;;;;-141.97;76.23;47899.66;5011448;28;20255;-82
2023/06/18 03:14:55;;;;;;;8.67;7.70;;;;;;;-141.97;76.24;47622.88;4996353;28;20167;-81
2023/06/18 03:17:21;;;;;;;10.60;7.17;;;;;;;-141.97;76.27;47622.88;5003178;28;20206;-81
2023/06/18 03:19:49;;;;;;;10.37;7.70;;;;;;;-141.97;76.21;47899.66;5014891;28;20674;-81
2023/06/18 03:22:17;;;;;;;10.10;7.90;;;;;;;-141.97;75.93;47772.78;5014045;28;20190;-82
2023/06/18 03:24:43;;;;;;;10.83;7.77;;;;;;;-141.97;76.25;47768.94;5015389;28;20195;-80
2023/06/18 03:27:08;;;;;;;10.97;8.10;;;;;;;-141.97;76.14;47763.19;5015245;28;20248;-82
2023/06/18 03:29:43;;;;;;;12.33;8.30;;;;;;;-141.97;76.14;47857.38;5015972;28;20163;-81
2023/06/18 03:32:09;;;;;;;11.23;8.10;;;;;;;-141.97;75.91;47613.25;5015261;28;20266;-82
2023/06/18 03:34:42;;;;;;;13.50;8.37;;;;;;;-141.97;75.75;47588.28;5014333;28;20167;-80
2023/06/18 03:37:08;;;;;;;11.07;8.13;;;;;;;-141.97;75.79;47753.56;5015354;28;20170;-80
2023/06/18 03:39:33;;;;;;;10.17;8.10;;;;;;;-141.97;75.67;47790.09;5015398;28;20547;-80
2023/06/18 03:41:59;;;;;;;11.43;8.73;;;;;;;-141.97;75.91;47667.06;5015155;28;20782;-80
2023/06/18 03:44:24;;;;;;;9.90;7.87;;;;;;;-141.97;75.64;47626.72;5015003;28;20229;-79
2023/06/18 03:46:50;;;;;;;12.47;8.80;;;;;;;-141.97;75.67;47724.75;5013778;28;20211;-80
2023/06/18 03:49:16;;;;;;;12.70;8.80;;;;;;;-141.97;76.23;47620.94;5015125;28;20546;-79
2023/06/18 03:51:41;;;;;;;11.00;8.40;;;;;;;-141.97;75.86;47749.72;5015010;28;20170;-79
2023/06/18 03:54:07;;;;;;;11.00;8.27;;;;;;;-141.97;75.85;47757.41;5015117;28;20173;-79
2023/06/18 03:56:32;;;;;;;10.40;8.40;;;;;;;-141.97;76.03;47765.09;5014420;28;20201;-78
2023/06/18 03:58:57;;;;;;;10.07;8.00;;;;;;;-141.97;75.15;47730.50;5014408;28;20174;-80
2023/06/18 04:01:23;;;;;;;12.93;8.50;;;;;;;-141.97;75.64;47726.66;5015098;28;20198;-80
2023/06/18 04:03:48;;;;;;;10.57;8.50;;;;;;;-141.97;75.00;47730.50;5014655;28;20175;-80
2023/06/18 04:06:14;;;;;;;11.47;8.93;;;;;;;-141.97;75.23;47743.97;5014681;28;20167;-81
2023/06/18 04:08:42;;;;;;;12.00;8.47;;;;;;;-141.97;74.61;47736.28;5014316;28;20215;-80
2023/06/18 04:11:07;;;;;;;12.07;8.53;;;;;;;-141.97;75.42;47757.41;5014560;28;20340;-81
2023/06/18 04:13:32;;;;;;;11.90;8.87;;;;;;;-141.97;75.33;47836.22;5015018;28;20702;-81
2023/06/18 04:15:58;;;;;;;10.77;9.03;;;;;;;-141.97;75.77;47749.72;5014627;28;20178;-80
2023/06/18 04:18:25;;;;;;;10.10;8.77;;;;;;;-141.97;75.47;47743.97;5010212;28;20329;-80
2023/06/18 04:20:50;;;;;;;14.30;8.50;;;;;;;-141.97;75.21;47692.06;4995313;28;20237;-79
2023/06/18 04:23:16;;;;;;;11.63;9.10;;;;;;;-141.97;76.11;47709.38;4992575;28;20557;-79
2023/06/18 04:25:41;;;;;;;10.67;8.50;;;;;;;-141.97;75.29;47676.69;4993958;28;20199;-80
2023/06/18 04:28:06;;;;;;;11.87;9.27;;;;;;;-141.97;75.75;47692.06;5012353;28;20185;-80
2023/06/18 04:30:32;;;;;;;12.17;8.33;;;;;;;-141.97;75.88;47778.56;5013761;28;20674;-81
2023/06/18 04:32:57;;;;;;;13.50;9.23;;;;;;;-141.97;76.10;47734.34;5014079;28;20697;-80
2023/06/18 04:35:23;;;;;;;12.33;9.17;;;;;;;-141.97;76.86;47742.03;5013501;28;20167;-79
2023/06/18 04:37:49;;;;;;;11.60;9.33;;;;;;;-141.97;76.94;47765.09;5013347;28;20534;-79
2023/06/18 04:40:15;;;;;;;11.10;9.10;;;;;;;-141.97;76.96;47803.56;5013542;28;20230;-79
2023/06/18 04:42:40;;;;;;;11.83;9.50;;;;;;;-141.97;76.95;47753.56;5013107;28;20185;-79
2023/06/18 04:45:08;;;;;;;11.90;9.33;;;;;;;-141.97;76.78;47780.47;5013067;28;20698;-79
2023/06/18 04:47:33;;;;;;;11.40;9.17;;;;;;;-141.97;76.60;47767.03;5013397;28;20177;-78
2023/06/18 04:49:59;;;;;;;13.50;9.27;;;;;;;-141.97;76.74;47757.41;5013227;28;20167;-77
2023/06/18 04:52:24;;;;;;;11.00;9.27;;;;;;;-141.97;76.43;47732.44;5013266;28;20220;-79
2023/06/18 04:54:52;;;;;;;12.63;9.70;;;;;;;-141.97;76.22;47745.88;5012966;28;20658;-80
2023/06/18 04:57:18;;;;;;;12.07;9.37;;;;;;;-141.97;76.46;47717.06;5012604;28;20671;-79
2023/06/18 04:59:43;;;;;;;15.03;9.73;;;;;;;-141.97;76.16;47726.66;5012847;28;20182;-78
2023/06/18 05:02:09;;;;;;;13.37;10.17;;;;;;;-141.97;75.85;47659.38;5013772;28;20209;-80
2023/06/18 05:04:34;;;;;;;12.07;9.57;;;;;;;-141.97;75.91;47722.81;5013485;28;20297;-79
2023/06/18 05:07:00;;;;;;;13.97;9.17;;;;;;;-141.97;75.84;47726.66;5012886;28;20163;-81
2023/06/18 05:09:26;;;;;;;13.93;9.40;;;;;;;-141.97;75.78;47851.59;5013372;28;20613;-79
2023/06/18 05:11:52;;;;;;;11.90;9.70;;;;;;;-141.97;76.00;47803.56;5013219;28;20246;-80
2023/06/18 05:14:17;;;;;;;12.27;9.63;;;;;;;-141.97;75.98;47745.88;5012835;28;20254;-78
2023/06/18 05:16:43;;;;;;;13.43;9.67;;;;;;;-141.97;74.93;47665.16;5011426;28;20166;-80
2023/06/18 05:19:08;;;;;;;13.80;10.20;;;;;;;-141.97;74.60;47742.03;5012803;28;20187;-80
2023/06/18 05:21:33;;;;;;;14.83;9.63;;;;;;;-141.97;74.81;47899.66;5012713;28;20543;-79
2023/06/18 05:23:59;;;;;;;12.87;9.97;;;;;;;-141.97;74.72;47757.41;5012881;28;20190;-79
2023/06/18 05:26:25;;;;;;;12.30;9.73;;;;;;;-141.97;74.80;47755.50;5012455;28;20175;-79
2023/06/18 05:28:50;;;;;;;14.23;10.43;;;;;;;-141.97;75.04;47759.34;5028184;28;20627;-80
2023/06/18 05:31:16;;;;;;;12.83;10.23;;;;;;;-141.97;75.37;47755.50;5012514;28;20159;-79
2023/06/18 05:33:41;;;;;;;12.00;9.83;;;;;;;-141.97;75.12;47928.50;5012627;28;20181;-79
2023/06/18 05:36:07;;;;;;;13.67;9.90;;;;;;;-141.97;74.87;47761.25;5012570;28;20158;-82
2023/06/18 05:38:32;;;;;;;14.13;10.23;;;;;;;-141.97;74.35;47692.06;5012555;28;20602;-79
2023/06/18 05:40:57;;;;;;;14.47;9.80;;;;;;;-141.97;74.55;47776.63;5012050;28;20522;-81
2023/06/18 05:43:23;;;;;;;15.10;10.43;;;;;;;-141.97;75.21;47899.66;5012474;28;20517;-80
2023/06/18 05:45:48;;;;;;;13.57;10.17;;;;;;;-141.97;75.50;47765.09;5012155;28;20206;-80
2023/06/18 05:48:14;;;;;;;12.80;9.27;;;;;;;-141.97;74.64;47753.56;5011451;28;20635;-79
2023/06/18 05:50:40;;;;;;;14.77;10.67;;;;;;;-141.97;74.69;47730.50;5012653;28;20519;-79
2023/06/18 05:53:06;;;;;;;12.30;10.17;;;;;;;-141.97;74.40;47851.59;5013047;28;20225;-79
2023/06/18 05:55:31;;;;;;;14.47;10.60;;;;;;;-141.97;74.30;47669.00;5012679;28;20165;-79
2023/06/18 05:57:57;;;;;;;12.77;9.50;;;;;;;-141.97;73.00;47745.88;5012403;28;20193;-79
2023/06/18 06:00:22;;;;;;;12.83;10.23;;;;;;;-141.97;74.32;47713.22;5011954;28;20185;-80
2023/06/18 06:02:48;;;;;;;13.70;9.90;;;;;;;-141.97;73.50;47765.09;5011589;28;20189;-80
2023/06/18 06:05:13;;;;;;;12.87;10.03;;;;;;;-141.97;73.24;47761.25;5011704;28;20191;-79
2023/06/18 06:07:38;;;;;;;14.37;10.53;;;;;;;-141.97;73.81;47649.78;5010952;28;20187;-79
2023/06/18 06:10:04;;;;;;;12.93;10.10;;;;;;;-141.97;74.44;47840.06;5009911;28;20218;-80
2023/06/18 06:12:30;;;;;;;14.23;10.13;;;;;;;-141.97;73.11;47749.72;5010313;28;20174;-80
2023/06/18 06:14:55;;;;;;;12.07;9.20;;;;;;;-141.97;73.16;47745.88;5012073;28;20157;-79
2023/06/18 06:17:21;;;;;;;12.33;9.97;;;;;;;-141.97;73.59;47726.66;5010195;28;20278;-80
2023/06/18 06:19:46;;;;;;;13.23;9.80;;;;;;;-141.97;73.01;47757.41;5010350;28;20178;-80
2023/06/18 06:22:11;;;;;;;14.43;10.17;;;;;;;-141.97;73.01;47742.03;5011116;28;20175;-79
2023/06/18 06:24:37;;;;;;;13.33;10.37;;;;;;;-141.97;73.35;47768.94;5011898;28;20213;-80
2023/06/18 06:27:02;;;;;;;11.80;9.40;;;;;;;-141.97;73.03;47742.03;5010986;28;20712;-79
2023/06/18 06:29:28;;;;;;;13.60;10.00;;;;;;;-141.97;72.93;47626.72;5011526;28;20174;-79
2023/06/18 06:31:53;;;;;;;13.30;10.03;;;;;;;-141.97;73.01;47928.50;5009874;28;20163;-80
2023/06/18 06:34:20;;;;;;;15.27;9.87;;;;;;;-141.97;73.26;47709.38;5011426;28;20257;-80
2023/06/18 06:36:46;;;;;;;14.23;10.07;;;;;;;-141.97;73.16;47653.63;5011131;28;20616;-80
2023/06/18 06:39:11;;;;;;;17.13;10.60;;;;;;;-141.97;73.97;47726.66;5011309;28;20170;-80
2023/06/18 06:41:37;;;;;;;13.37;9.90;;;;;;;-141.97;73.91;47726.66;5011291;28;20311;-79
2023/06/18 06:44:07;;;;;;;12.83;9.87;;;;;;;-141.97;73.97;47703.59;5010330;28;20185;-79
2023/06/18 06:46:34;;;;;;;13.20;10.37;;;;;;;-141.97;73.94;47738.19;5011567;28;20163;-79
2023/06/18 06:48:59;;;;;;;13.17;10.63;;;;;;;-141.97;73.09;47715.13;5010958;28;20175;-79
2023/06/18 06:51:25;;;;;;;14.10;9.30;;;;;;;-141.97;72.38;47715.13;5011216;28;20213;-79
2023/06/18 06:53:50;;;;;;;12.30;10.40;;;;;;;-141.97;72.99;47728.59;5011503;28;20260;-79
2023/06/18 06:56:16;;;;;;;13.70;10.90;;;;;;;-141.97;73.84;47738.19;5011194;28;20193;-78
2023/06/18 06:58:41;;;;;;;17.13;11.43;;;;;;;-141.97;73.41;47730.50;5009765;28;20639;-77
2023/06/18 07:01:07;;;;;;;12.77;10.07;;;;;;;-141.97;72.30;47732.44;5011334;28;20616;-79
2023/06/18 07:03:32;;;;;;;14.37;11.20;;;;;;;-141.97;72.44;47717.06;5011764;28;20238;-82
2023/06/18 07:05:58;;;;;;;15.23;10.53;;;;;;;-141.97;71.98;47676.69;5011630;28;20190;-81
2023/06/18 07:08:23;;;;;;;13.27;10.87;;;;;;;-141.97;71.83;47580.59;5010886;28;20222;-79
2023/06/18 07:10:48;;;;;;;13.13;10.10;;;;;;;-141.97;71.50;47926.56;5011152;28;20178;-80
2023/06/18 07:13:14;;;;;;;13.20;10.80;;;;;;;-141.97;71.36;47701.69;4992025;28;20238;-82
2023/06/18 07:15:39;;;;;;;13.87;10.07;;;;;;;-141.97;71.50;47692.06;5010355;28;20179;-79
2023/06/18 07:18:04;;;;;;;14.57;10.30;;;;;;;-141.97;71.71;47726.66;5011231;28;20196;-80
2023/06/18 07:20:30;;;;;;;13.40;10.40;;;;;;;-141.97;70.48;47738.19;5011228;28;20237;-80
2023/06/18 07:22:55;;;;;;;13.37;10.07;;;;;;;-141.97;70.58;47720.91;5012984;28;20178;-79
2023/06/18 07:25:21;;;;;;;12.97;10.13;;;;;;;-141.97;70.62;47767.03;5013530;28;20657;-80
2023/06/18 07:27:46;;;;;;;13.63;10.50;;;;;;;-141.97;71.02;47730.50;5014014;28;20163;-81
2023/06/18 07:30:12;;;;;;;15.00;11.90;;;;;;;-141.97;71.05;47695.91;5014130;28;20167;-79
2023/06/18 07:32:38;;;;;;;14.30;11.37;;;;;;;-141.97;70.24;47709.38;5013548;28;20177;-80
2023/06/18 07:35:03;;;;;;;16.00;11.77;;;;;;;-141.97;69.86;47711.28;5013087;28;20177;-80
2023/06/18 07:37:29;;;;;;;14.53;11.37;;;;;;;-141.97;69.29;47709.38;5014292;28;20170;-81
2023/06/18 07:39:55;;;;;;;13.27;10.70;;;;;;;-141.97;69.30;47918.88;5012132;28;21232;-80
2023/06/18 07:42:20;;;;;;;15.23;10.47;;;;;;;-141.97;68.47;47734.34;5012157;28;20182;-79
2023/06/18 07:44:46;;;;;;;12.93;10.63;;;;;;;-141.97;69.29;47734.34;5025721;28;20202;-79
2023/06/18 07:47:11;;;;;;;13.77;10.87;;;;;;;-141.97;69.22;47742.03;5014315;28;20198;-79
2023/06/18 07:49:37;;;;;;;13.53;10.80;;;;;;;-141.97;68.56;47713.22;5013311;28;20201;-80
2023/06/18 07:52:03;;;;;;;14.27;9.80;;;;;;;-141.97;68.30;47734.34;5013207;28;20262;-80
2023/06/18 07:54:28;;;;;;;13.40;10.77;;;;;;;-141.97;68.57;47718.97;5012161;28;20187;-79
2023/06/18 07:56:53;;;;;;;13.13;11.07;;;;;;;-141.97;68.61;47734.34;5012554;28;20202;-79
2023/06/18 07:59:20;;;;;;;13.77;10.63;;;;;;;-141.97;68.17;47732.44;5013064;28;20168;-80
2023/06/18 08:01:46;;;;;;;12.40;10.80;;;;;;;-141.97;68.30;47722.81;5013469;28;20171;-80
2023/06/18 08:04:11;;;;;;;14.40;10.53;;;;;;;-141.97;68.39;47926.56;5013742;28;20197;-80
2023/06/18 08:06:37;;;;;;;15.67;11.93;;;;;;;-141.97;68.27;47680.53;5015147;28;20191;-79
2023/06/18 08:09:03;;;;;;;13.37;11.10;;;;;;;-141.97;68.12;47701.69;5013440;28;20840;-80
2023/06/18 08:11:28;;;;;;;12.90;10.47;;;;;;;-141.97;68.28;47753.56;5013336;28;20182;-79
2023/06/18 08:13:54;;;;;;;13.83;10.70;;;;;;;-141.97;67.96;47726.66;5013685;28;20485;-78
2023/06/18 08:16:23;;;;;;;16.50;10.70;;;;;;;-141.97;68.26;47718.97;5013339;28;20249;-79
2023/06/18 08:18:48;;;;;;;14.67;10.23;;;;;;;-141.97;67.84;47707.44;5014317;28;20620;-79
2023/06/18 08:21:13;;;;;;;12.40;10.70;;;;;;;-141.97;67.62;47728.59;5014079;28;20248;-80
2023/06/18 08:23:39;;;;;;;12.83;10.40;;;;;;;-141.97;67.17;47730.50;5013865;28;20163;-79
2023/06/18 08:26:04;;;;;;;12.90;10.20;;;;;;;-141.97;66.47;47697.84;5013293;28;20229;-79
2023/06/18 08:28:30;;;;;;;11.80;9.43;;;;;;;-141.97;66.28;47686.31;5013659;28;20167;-79
2023/06/18 08:30:55;;;;;;;12.50;10.23;;;;;;;-141.97;66.42;47690.16;5013507;28;20186;-79
2023/06/18 08:33:21;;;;;;;12.37;10.33;;;;;;;-141.97;66.50;47742.03;5010946;28;20175;-79
2023/06/18 08:35:46;;;;;;;14.27;10.70;;;;;;;-141.97;67.44;47684.38;5012843;28;20170;-78
2023/06/18 08:38:11;;;;;;;12.57;9.63;;;;;;;-141.97;66.29;47709.38;5012720;28;20166;-78
2023/06/18 08:41:00;;;;;;;11.27;9.73;;;;;;;-141.97;66.29;47674.78;5012620;28;20177;-78
2023/06/18 08:43:26;;;;;;;13.53;9.67;;;;;;;-141.97;65.50;47699.75;5012714;28;20170;-78
2023/06/18 08:45:53;;;;;;;11.77;10.10;;;;;;;-141.97;64.95;47703.59;5013313;28;20193;-79
2023/06/18 08:48:27;;;;;;;10.63;9.30;;;;;;;-141.97;64.52;47663.22;5012896;28;20177;-79
2023/06/18 08:50:59;;;;;;;11.10;9.43;;;;;;;-141.97;64.92;47738.19;5012599;28;20253;-79
2023/06/18 08:53:44;;;;;;;11.03;9.27;;;;;;;-141.97;65.47;47705.53;5012506;28;20186;-77
2023/06/18 08:56:09;;;;;;;12.37;9.27;;;;;;;-141.97;64.48;47722.81;5012766;28;20170;-79
2023/06/18 08:58:42;;;;;;;10.60;8.80;;;;;;;-141.97;64.75;47705.53;5011296;28;20167;-80
2023/06/18 09:01:07;;;;;;;12.37;9.07;;;;;;;-141.97;64.49;47684.38;5012261;28;20170;-79
2023/06/18 09:03:37;;;;;;;10.23;7.83;;;;;;;-141.97;63.95;47676.69;5012390;28;20163;-77
2023/06/18 09:06:03;;;;;;;12.63;9.00;;;;;;;-141.97;63.85;47667.06;5012001;28;20320;-79
2023/06/18 09:08:30;;;;;;;10.80;8.57;;;;;;;-141.97;64.27;47715.13;5012436;28;20301;-80
2023/06/18 09:10:57;;;;;;;10.47;8.57;;;;;;;-141.97;nan;47692.06;5012341;28;20179;-80
2023/06/18 09:13:23;;;;;;;13.07;9.57;;;;;;;-141.97;65.08;47713.22;5012152;28;20256;-79
2023/06/18 09:15:48;;;;;;;10.77;8.93;;;;;;;-141.97;64.71;47680.53;5012506;28;20194;-79
2023/06/18 09:18:15;;;;;;;11.67;7.87;;;;;;;-141.97;64.70;47678.63;5012171;28;20682;-80
2023/06/18 09:20:40;;;;;;;11.00;9.00;;;;;;;-141.97;64.72;47638.25;5014018;28;20655;-80
2023/06/18 09:23:10;;;;;;;11.33;9.57;;;;;;;-141.97;64.56;47699.75;5011034;28;20232;-79
2023/06/18 09:25:35;;;;;;;11.87;9.27;;;;;;;-141.97;65.04;47688.22;5012091;28;20191;-80
2023/06/18 09:28:02;;;;;;;12.50;9.67;;;;;;;-141.97;65.26;47705.53;5011765;28;20490;-80
2023/06/18 09:30:28;;;;;;;11.73;9.20;;;;;;;-141.97;64.63;47684.38;5011916;28;20216;-79
2023/06/18 09:32:57;;;;;;;11.53;9.20;;;;;;;-141.97;64.57;47669.00;5011815;28;20612;-78
2023/06/18 09:35:23;;;;;;;11.93;9.47;;;;;;;-141.97;64.52;47667.06;5012037;28;20165;-78
2023/06/18 09:37:49;;;;;;;10.33;8.63;;;;;;;-141.97;62.77;47722.81;5011937;28;20258;-79
2023/06/18 09:40:15;;;;;;;10.70;9.60;;;;;;;-141.97;62.14;47676.69;5011968;28;20276;-79
2023/06/18 09:42:40;;;;;;;9.60;8.30;;;;;;;-141.97;60.39;47619.03;5012062;28;20170;-80
2023/06/18 09:45:06;;;;;;;10.83;9.03;;;;;;;-141.97;61.12;47547.91;5011972;28;20248;-80
2023/06/18 09:47:32;;;;;;;10.23;8.57;;;;;;;-141.97;61.10;47680.53;5012184;28;20166;-79
2023/06/18 09:49:58;;;;;;;14.33;9.77;;;;;;;-141.97;60.21;47649.78;5012038;28;20184;-79
2023/06/18 09:52:24;;;;;;;10.93;9.57;;;;;;;-141.97;57.51;47605.56;5011423;28;20169;-78
2023/06/18 09:54:50;;;;;;;9.95;8.20;;;;;;;-141.97;57.31;47655.53;5011727;28;20153;-79
2023/06/18 09:57:16;;;;;;;10.02;8.63;;;;;;;-141.97;58.53;47661.31;5026159;28;20259;-79
2023/06/18 09:59:41;;;;;;;11.57;7.60;;;;;;;-141.97;58.18;47636.31;5011751;28;20216;-79
2023/06/18 10:02:13;;;;;;;8.60;7.70;;;;;;;-141.97;58.44;47680.53;5011286;28;20174;-78
2023/06/18 10:04:38;;;;;;;11.37;8.53;;;;;;;-141.97;58.88;47657.47;5011412;28;20683;-80
2023/06/18 10:07:06;;;;;;;9.80;7.87;;;;;;;-141.97;57.58;47655.53;5011579;28;20216;-79
2023/06/18 10:09:32;;;;;;;8.40;7.07;;;;;;;-141.97;58.18;47655.53;5011767;28;20668;-79
2023/06/18 10:11:59;;;;;;;8.67;7.67;;;;;;;-141.97;58.70;47684.38;5011440;28;20167;-80
2023/06/18 10:14:28;;;;;;;10.77;8.30;;;;;;;-141.97;58.15;47647.84;5011668;28;20250;-79
2023/06/18 10:17:08;;;;;;;9.30;8.30;;;;;;;-141.97;58.68;47667.06;5010040;28;20255;-78
2023/06/18 10:19:46;;;;;;;9.27;7.75;;;;;;;-141.97;58.23;47676.69;5011044;28;20660;-80
2023/06/18 10:22:14;;;;;;;11.63;8.60;;;;;;;-141.97;59.71;47655.53;5011199;28;20182;-80
2023/06/18 10:24:46;;;;;;;9.67;8.40;;;;;;;-141.97;58.65;47686.31;5011277;28;20559;-79
2023/06/18 10:27:12;;;;;;;10.20;8.80;;;;;;;-141.97;58.28;47588.28;5011248;28;20166;-79
2023/06/18 10:29:38;;;;;;;12.33;8.43;;;;;;;-141.97;58.80;47642.09;5011434;28;20254;-80
2023/06/18 10:32:04;;;;;;;9.47;7.87;;;;;;;-141.97;58.49;47638.25;5011537;28;20238;-79
2023/06/18 10:34:34;;;;;;;12.20;8.10;;;;;;;-141.97;58.27;47665.16;5010823;28;20198;-80
2023/06/18 10:37:00;;;;;;;11.35;8.63;;;;;;;-141.97;58.86;47680.53;5010728;28;20697;-80
2023/06/18 10:39:27;;;;;;;12.40;8.13;;;;;;;-141.97;59.18;47580.59;5026710;28;20168;-80
2023/06/18 10:41:53;;;;;;;10.50;7.10;;;;;;;-141.97;58.91;47711.28;5025821;28;20175;-79
2023/06/18 10:44:52;;;;;;;8.10;7.30;;;;;;;-141.97;58.86;47655.53;5011123;28;20320;-79
2023/06/18 10:47:23;;;;;;;10.23;7.33;;;;;;;-141.97;59.69;47665.16;5010139;28;20623;-78
2023/06/18 10:50:04;;;;;;;9.43;8.40;;;;;;;-141.97;59.69;47645.94;5010212;28;20172;-79
2023/06/18 10:52:30;;;;;;;11.37;8.70;;;;;;;-141.97;58.99;47644.00;5010541;28;20163;-78
2023/06/18 10:55:26;;;;;;;8.57;7.28;;;;;;;-141.97;57.69;47642.09;5011393;28;20239;-79
2023/06/18 10:58:01;;;;;;;8.93;7.05;;;;;;;-141.97;57.74;47676.69;5013996;28;20523;-78
2023/06/18 11:00:40;;;;;;;8.15;7.32;;;;;;;-141.97;58.45;47622.88;5014349;28;20680;-79
2023/06/18 11:03:14;;;;;;;13.27;7.38;;;;;;;-141.97;59.40;47676.69;5014768;28;20190;-78
2023/06/18 11:05:41;;;;;;;10.13;7.15;;;;;;;-141.97;58.84;47657.47;5014960;28;20220;-79
2023/06/18 11:08:09;;;;;;;9.18;6.82;;;;;;;-141.97;58.26;47661.31;5014323;28;20249;-78